createdAt,value
2022-10-16T00:04:20.129Z,100587.84
2022-10-16T00:09:35.841Z,100587.09
2022-10-16T00:14:50.841Z,100586.34
2022-10-16T00:20:05.970Z,100595.28
2022-10-16T00:25:20.867Z,100595.28
2022-10-16T00:41:05.929Z,100583.38
2022-10-16T00:46:21.192Z,100582.63
2022-10-16T00:51:37.182Z,100587.44
2022-10-16T00:56:52.894Z,100587.75
2022-10-16T01:02:07.853Z,100596.09
2022-10-16T01:07:23.354Z,100592.56
2022-10-16T01:12:39.141Z,100591.81
2022-10-16T01:17:56.197Z,100591.81
2022-10-16T01:23:11.852Z,100593.13
2022-10-16T01:28:27.255Z,100594.41
2022-10-16T01:33:42.922Z,100594.94
2022-10-16T01:38:57.851Z,100597.72
2022-10-16T01:44:12.909Z,100590.66
2022-10-16T01:49:28.198Z,100599.03
2022-10-16T01:54:43.867Z,100595.47
2022-10-16T01:59:59.074Z,100595.47
2022-10-16T02:05:20.960Z,100590.66
2022-10-16T02:10:35.939Z,100582.06
2022-10-16T02:15:50.841Z,100584.84
2022-10-16T02:21:05.854Z,100594.53
2022-10-16T02:26:20.865Z,100597.31
2022-10-16T02:31:35.878Z,100611.25
2022-10-16T02:36:50.953Z,100604.16
2022-10-16T02:42:06.175Z,100597.09
2022-10-16T02:47:22.138Z,100606.19
2022-10-16T02:52:37.892Z,100614.56
2022-10-16T02:57:54.599Z,100611.78
2022-10-16T03:03:12.014Z,100616.59
2022-10-16T03:08:26.881Z,100606.72
2022-10-16T03:13:41.852Z,100615.84
2022-10-16T03:18:56.936Z,100608.53
2022-10-16T03:24:11.878Z,100620.13
2022-10-16T03:29:26.878Z,100622.59
2022-10-16T03:34:41.903Z,100617.00
2022-10-16T03:39:57.149Z,100629.44
2022-10-16T03:45:12.873Z,100629.44
2022-10-16T03:50:27.883Z,100630.19
2022-10-16T03:55:42.870Z,100626.91
2022-10-16T04:00:57.960Z,100626.91
2022-10-16T04:06:13.192Z,100636.03
2022-10-16T04:11:29.076Z,100641.03
2022-10-16T04:16:44.917Z,100656.50
2022-10-16T04:22:00.906Z,100667.84
2022-10-16T04:27:15.889Z,100663.56
2022-10-16T04:32:30.872Z,100675.44
2022-10-16T04:37:46.215Z,100682.53
2022-10-16T04:43:02.221Z,100681.78
2022-10-16T04:48:18.215Z,100698.75
2022-10-16T04:53:33.903Z,100688.56
2022-10-16T04:58:49.891Z,100704.75
2022-10-16T05:04:04.881Z,100706.03
2022-10-16T05:09:19.873Z,100722.22
2022-10-16T05:14:34.911Z,100723.50
2022-10-16T05:19:50.174Z,100737.44
2022-10-16T05:25:06.208Z,100740.44
2022-10-16T05:30:21.908Z,100743.97
2022-10-16T05:35:36.882Z,100755.38
2022-10-16T05:40:51.890Z,100765.78
2022-10-16T05:46:06.884Z,100762.25
2022-10-16T05:51:22.245Z,100775.63
2022-10-16T05:56:37.902Z,100783.47
2022-10-16T06:01:52.895Z,100779.16
2022-10-16T06:07:07.656Z,100787.53
2022-10-16T06:12:22.914Z,100804.28
2022-10-16T06:17:38.161Z,100804.50
2022-10-16T06:22:54.896Z,100805.38
2022-10-16T06:28:10.251Z,100819.31
2022-10-16T06:33:25.903Z,100823.41
2022-10-16T06:38:40.868Z,100832.84
2022-10-16T06:43:56.230Z,100845.03
2022-10-16T06:49:12.201Z,100861.53
2022-10-16T06:54:28.192Z,100864.84
2022-10-16T06:59:46.835Z,100867.41
2022-10-16T07:05:02.215Z,100883.94
2022-10-16T07:10:18.493Z,100897.66
2022-10-16T07:15:34.216Z,100906.56
2022-10-16T07:20:50.211Z,100917.44
2022-10-16T07:26:05.878Z,100923.88
2022-10-16T07:31:20.900Z,100955.28
2022-10-16T07:36:36.050Z,100951.75
2022-10-16T07:41:50.900Z,100952.25
2022-10-16T07:47:06.212Z,100960.09
2022-10-16T07:52:22.178Z,100958.06
2022-10-16T07:57:38.243Z,100962.16
2022-10-16T08:02:53.899Z,100985.19
2022-10-16T08:08:09.221Z,100991.28
2022-10-16T08:13:24.892Z,100997.38
2022-10-16T08:18:39.917Z,101005.00
2022-10-16T08:23:58.079Z,101017.44
2022-10-16T08:29:13.906Z,101011.88
2022-10-16T08:34:29.249Z,101017.66
2022-10-16T08:39:44.909Z,101033.09
2022-10-16T08:44:59.904Z,101029.28
2022-10-16T08:50:14.895Z,101040.44
2022-10-16T08:55:29.906Z,101047.53
2022-10-16T09:00:44.961Z,101060.38
2022-10-16T09:05:59.912Z,101057.31
2022-10-16T09:11:51.941Z,101078.56
2022-10-16T09:22:21.943Z,101076.78
2022-10-16T09:27:36.922Z,101084.09
2022-10-16T09:32:51.905Z,101089.91
2022-10-16T09:38:06.880Z,101104.81
2022-10-16T09:43:21.931Z,101110.63
2022-10-16T09:48:36.919Z,101100.47
2022-10-16T09:59:07.653Z,101105.75
2022-10-16T10:04:23.203Z,101113.06
2022-10-16T10:09:38.940Z,101121.69
2022-10-16T10:14:53.929Z,101128.22
2022-10-16T10:20:08.887Z,101121.38
2022-10-16T10:25:23.970Z,101132.25
2022-10-16T10:30:38.911Z,101128.94
2022-10-16T10:35:53.904Z,101141.81
2022-10-16T10:41:08.653Z,101152.47
2022-10-16T10:46:23.738Z,101140.78
2022-10-16T10:51:38.976Z,101148.59
2022-10-16T10:56:53.932Z,101149.38
2022-10-16T11:02:09.959Z,101158.50
2022-10-16T11:07:25.479Z,101159.50
2022-10-16T11:12:40.951Z,101166.34
2022-10-16T11:17:55.954Z,101163.03
2022-10-16T11:23:11.304Z,101185.59
2022-10-16T11:28:30.870Z,101185.81
2022-10-16T11:33:46.932Z,101185.81
2022-10-16T11:39:01.923Z,101194.41
2022-10-16T11:44:17.253Z,101184.00
2022-10-16T11:49:32.944Z,101189.81
2022-10-16T11:54:47.896Z,101196.94
2022-10-16T12:00:03.011Z,101201.97
2022-10-16T12:05:20.945Z,101207.03
2022-10-16T12:10:36.111Z,101207.03
2022-10-16T12:15:59.235Z,101207.53
2022-10-16T12:21:16.294Z,101208.38
2022-10-16T12:26:31.997Z,101225.88
2022-10-16T12:31:57.584Z,101207.84
2022-10-16T12:37:13.215Z,101212.69
2022-10-16T12:42:29.572Z,101212.38
2022-10-16T12:47:44.937Z,101218.19
2022-10-16T12:53:00.197Z,101220.47
2022-10-16T12:58:15.901Z,101223.69
2022-10-16T13:03:30.911Z,101222.41
2022-10-16T13:08:45.910Z,101221.16
2022-10-16T13:14:01.225Z,101217.31
2022-10-16T13:19:16.932Z,101220.31
2022-10-16T13:24:32.237Z,101239.84
2022-10-16T13:29:47.948Z,101224.63
2022-10-16T13:35:02.951Z,101237.81
2022-10-16T13:40:18.004Z,101241.59
2022-10-16T13:45:32.910Z,101242.91
2022-10-16T13:50:47.929Z,101242.38
2022-10-16T13:56:03.236Z,101245.91
2022-10-16T14:01:19.349Z,101253.53
2022-10-16T14:06:34.923Z,101240.88
2022-10-16T14:11:49.947Z,101250.22
2022-10-16T14:17:04.955Z,101253.00
2022-10-16T14:22:20.257Z,101263.94
2022-10-16T14:27:35.985Z,101261.91
2022-10-16T14:32:51.244Z,101251.28
2022-10-16T14:38:06.932Z,101254.84
2022-10-16T14:43:22.212Z,101251.03
2022-10-16T14:48:38.022Z,101264.22
2022-10-16T14:53:56.532Z,101267.56
2022-10-16T14:59:14.047Z,101264.78
2022-10-16T15:04:28.710Z,101261.75
2022-10-16T15:09:48.138Z,101249.84
2022-10-16T15:15:04.999Z,101247.78
2022-10-16T15:20:20.245Z,101251.34
2022-10-16T15:25:36.273Z,101249.56
2022-10-16T15:30:51.927Z,101248.81
2022-10-16T15:36:06.946Z,101240.00
2022-10-16T15:41:22.025Z,101246.56
2022-10-16T15:46:36.970Z,101251.91
2022-10-16T15:51:51.961Z,101253.22
2022-10-16T15:57:06.997Z,101246.88
2022-10-16T16:02:22.324Z,101241.31
2022-10-16T16:07:38.275Z,101261.88
2022-10-16T16:12:53.926Z,101271.75
2022-10-16T16:18:08.997Z,101255.75
2022-10-16T16:23:23.990Z,101260.56
2022-10-16T16:28:38.731Z,101271.75
2022-10-16T16:33:53.693Z,101268.94
2022-10-16T16:39:08.893Z,101267.47
2022-10-16T16:44:23.948Z,101272.28
2022-10-16T16:49:38.969Z,101275.06
2022-10-16T16:54:54.250Z,101291.06
2022-10-16T17:00:09.946Z,101299.44
2022-10-16T17:05:24.958Z,101302.22
2022-10-16T17:10:39.962Z,101299.19
2022-10-16T17:15:55.196Z,101287.28
2022-10-16T17:21:09.983Z,101299.19
2022-10-16T17:26:24.960Z,101301.22
2022-10-16T17:31:40.013Z,101298.72
2022-10-16T17:36:54.982Z,101308.84
2022-10-16T17:42:10.023Z,101303.25
2022-10-16T17:47:24.981Z,101300.97
2022-10-16T17:52:40.260Z,101293.13
2022-10-16T17:57:55.940Z,101316.22
2022-10-16T18:03:10.857Z,101308.59
2022-10-16T18:08:28.675Z,101297.22
2022-10-16T18:13:45.107Z,101307.06
2022-10-16T18:18:59.929Z,101313.97
2022-10-16T18:24:15.272Z,101328.69
2022-10-16T18:29:31.038Z,101324.38
2022-10-16T18:34:45.932Z,101328.44
2022-10-16T18:40:00.948Z,101348.72
2022-10-16T18:45:17.299Z,101357.59
2022-10-16T18:50:33.376Z,101355.56
2022-10-16T18:55:49.315Z,101367.19
2022-10-16T19:01:05.095Z,101373.78
2022-10-16T19:06:20.358Z,101386.47
2022-10-16T19:11:37.934Z,101382.63
2022-10-16T19:16:56.273Z,101371.19
2022-10-16T19:22:11.947Z,101365.31
2022-10-16T19:27:27.205Z,101350.06
2022-10-16T19:32:42.752Z,101356.41
2022-10-16T19:37:57.992Z,101357.94
2022-10-16T19:43:12.941Z,101364.28
2022-10-16T19:48:28.254Z,101361.72
2022-10-16T19:53:44.295Z,101373.66
2022-10-16T19:59:00.011Z,101382.22
2022-10-16T20:04:15.088Z,101394.91
2022-10-16T20:09:30.275Z,101379.72
2022-10-16T20:14:46.004Z,101371.81
2022-10-16T20:20:01.012Z,101342.13
2022-10-16T20:25:19.344Z,101366.72
2022-10-16T20:30:34.993Z,101370.28
2022-10-16T20:35:49.974Z,101377.38
2022-10-16T20:41:04.939Z,101368.25
2022-10-16T20:46:20.024Z,101366.41
2022-10-16T20:51:34.954Z,101364.63
2022-10-16T20:56:50.274Z,101361.84
2022-10-16T21:02:08.707Z,101361.31
2022-10-16T21:07:27.113Z,101352.94
2022-10-16T21:12:43.267Z,101358.75
2022-10-16T21:17:59.067Z,101347.56
2022-10-16T21:23:13.953Z,101354.66
2022-10-16T21:28:28.807Z,101354.66
2022-10-16T21:33:44.221Z,101355.44
2022-10-16T21:39:01.225Z,101343.75
2022-10-16T21:44:17.952Z,101333.34
2022-10-16T21:49:32.734Z,101308.94
2022-10-16T21:54:48.057Z,101308.19
2022-10-16T22:00:05.504Z,101305.16
2022-10-16T22:05:23.953Z,101293.22
2022-10-16T22:10:38.975Z,101301.63
2022-10-16T22:15:54.286Z,101300.66
2022-10-16T22:21:09.733Z,101295.81
2022-10-16T22:26:25.019Z,101291.03
2022-10-16T22:31:40.256Z,101281.63
2022-10-16T22:36:55.724Z,101268.94
2022-10-16T22:42:10.991Z,101262.63
2022-10-16T22:47:26.555Z,101265.91
2022-10-16T22:52:41.947Z,101271.50
2022-10-16T22:57:57.250Z,101276.31
2022-10-16T23:03:13.010Z,101269.97
2022-10-16T23:08:27.985Z,101273.31
2022-10-16T23:13:43.035Z,101279.41
2022-10-16T23:18:58.345Z,101275.88
2022-10-16T23:24:14.230Z,101273.63
2022-10-16T23:29:29.974Z,101270.03
2022-10-16T23:34:45.317Z,101253.81
2022-10-16T23:40:01.355Z,101257.16
2022-10-16T23:45:16.994Z,101254.38
2022-10-16T23:50:31.960Z,101253.59
2022-10-16T23:55:47.267Z,101249.28
